createdAt,value
2019-06-08T00:00:59.028Z,71.53
2019-06-08T00:01:58.986Z,70.72
2019-06-08T00:02:59.019Z,70.42
2019-06-08T00:03:58.965Z,71.73
2019-06-08T00:04:58.959Z,70.96
2019-06-08T00:05:58.929Z,70.55
2019-06-08T00:06:59.057Z,70.76
2019-06-08T00:07:58.920Z,70.35
2019-06-08T00:08:58.945Z,70.65
2019-06-08T00:09:58.894Z,70.86
2019-06-08T00:10:58.888Z,71.16
2019-06-08T00:11:58.876Z,70.45
2019-06-08T00:12:58.867Z,70.15
2019-06-08T00:13:58.837Z,70.45
2019-06-08T00:14:58.837Z,70.76
2019-06-08T00:15:59.011Z,71.77
2019-06-08T00:16:58.927Z,71.88
2019-06-08T00:17:59.515Z,70.76
2019-06-08T00:18:58.797Z,71.97
2019-06-08T00:19:58.787Z,70.96
2019-06-08T00:20:58.777Z,71.16
2019-06-08T00:21:58.891Z,72.08
2019-06-08T00:22:58.883Z,71.26
2019-06-08T00:23:58.754Z,72.08
2019-06-08T00:24:58.740Z,71.26
2019-06-08T00:25:58.708Z,70.76
2019-06-08T00:26:58.807Z,71.06
2019-06-08T00:27:58.679Z,71.26
2019-06-08T00:28:58.686Z,71.26
2019-06-08T00:29:58.692Z,71.47
2019-06-08T00:30:58.793Z,71.30
2019-06-08T00:31:58.778Z,71.57
2019-06-08T00:32:58.669Z,70.99
2019-06-08T00:33:58.618Z,71.40
2019-06-08T00:34:58.631Z,71.50
2019-06-08T00:35:58.589Z,71.20
2019-06-08T00:36:58.772Z,71.50
2019-06-08T00:37:58.611Z,71.60
2019-06-08T00:38:58.590Z,72.11
2019-06-08T00:39:58.560Z,71.91
2019-06-08T00:40:58.875Z,71.50
2019-06-08T00:41:58.549Z,71.40
2019-06-08T00:42:58.707Z,71.09
2019-06-08T00:43:58.560Z,71.80
2019-06-08T00:44:58.700Z,71.91
2019-06-08T00:45:58.500Z,71.60
2019-06-08T00:46:58.580Z,71.60
2019-06-08T00:47:58.540Z,70.99
2019-06-08T00:48:58.471Z,71.30
2019-06-08T00:49:58.460Z,71.50
2019-06-08T00:50:58.452Z,71.40
2019-06-08T00:51:58.441Z,71.20
2019-06-08T00:52:58.615Z,70.68
2019-06-08T00:53:58.393Z,71.20
2019-06-08T00:54:58.411Z,71.26
2019-06-08T00:55:58.381Z,71.09
2019-06-08T00:56:58.391Z,70.65
2019-06-08T00:57:58.551Z,71.06
2019-06-08T00:58:58.374Z,70.86
2019-06-08T00:59:58.339Z,71.30
2019-06-08T01:00:58.362Z,70.86
2019-06-08T01:02:59.483Z,71.20
2019-06-08T01:03:58.323Z,71.09
2019-06-08T01:04:58.301Z,71.30
2019-06-08T01:05:58.275Z,71.70
2019-06-08T01:06:58.275Z,72.21
2019-06-08T01:07:58.270Z,70.89
2019-06-08T01:08:58.432Z,71.09
2019-06-08T01:09:58.252Z,71.20
2019-06-08T01:10:58.213Z,71.30
2019-06-08T01:11:58.231Z,70.99
2019-06-08T01:12:58.226Z,70.79
2019-06-08T01:13:58.194Z,70.99
2019-06-08T01:14:58.193Z,70.99
2019-06-08T01:15:58.182Z,70.59
2019-06-08T01:16:58.173Z,71.40
2019-06-08T01:18:03.838Z,70.59
2019-06-08T01:18:59.272Z,71.09
2019-06-08T01:19:58.189Z,71.40
2019-06-08T01:20:58.113Z,71.20
2019-06-08T01:21:58.113Z,70.99
2019-06-08T01:22:58.104Z,71.40
2019-06-08T01:23:58.083Z,70.68
2019-06-08T01:24:58.213Z,70.48
2019-06-08T01:25:58.055Z,70.38
2019-06-08T01:26:58.063Z,70.48
2019-06-08T01:27:58.054Z,70.68
2019-06-08T01:28:58.229Z,70.79
2019-06-08T01:29:58.134Z,70.79
2019-06-08T01:30:58.059Z,70.68
2019-06-08T01:31:58.005Z,70.48
2019-06-08T01:32:58.004Z,70.48
2019-06-08T01:33:58.079Z,70.59
2019-06-08T01:34:58.003Z,70.99
2019-06-08T01:35:57.965Z,71.40
2019-06-08T01:36:57.955Z,70.79
2019-06-08T01:37:57.945Z,70.79
2019-06-08T01:38:58.048Z,71.30
2019-06-08T01:39:58.072Z,70.68
2019-06-08T01:40:57.955Z,70.79
2019-06-08T01:41:58.018Z,70.59
2019-06-08T01:42:57.925Z,70.89
2019-06-08T01:43:57.876Z,70.68
2019-06-08T01:44:57.846Z,70.82
2019-06-08T01:45:57.870Z,71.12
2019-06-08T01:46:57.846Z,70.92
2019-06-08T01:47:57.836Z,70.82
2019-06-08T01:48:57.807Z,71.12
2019-06-08T01:49:57.857Z,71.53
2019-06-08T01:50:57.846Z,71.23
2019-06-08T01:51:57.799Z,71.23
2019-06-08T01:52:57.790Z,71.12
2019-06-08T01:53:57.766Z,71.43
2019-06-08T01:54:57.879Z,71.33
2019-06-08T01:55:57.927Z,71.64
2019-06-08T01:56:57.725Z,71.33
2019-06-08T01:57:57.727Z,71.84
2019-06-08T01:58:57.717Z,71.33
2019-06-08T01:59:57.728Z,72.04
2019-06-08T02:00:57.856Z,71.84
2019-06-08T02:01:57.690Z,71.43
2019-06-08T02:02:57.720Z,71.53
2019-06-08T02:03:57.659Z,72.04
2019-06-08T02:04:57.665Z,72.14
2019-06-08T02:05:57.637Z,71.33
2019-06-08T02:06:57.636Z,71.23
2019-06-08T02:07:57.618Z,71.43
2019-06-08T02:08:57.611Z,71.84
2019-06-08T02:09:57.599Z,71.43
2019-06-08T02:10:57.697Z,71.33
2019-06-08T02:11:57.581Z,71.43
2019-06-08T02:12:57.572Z,71.84
2019-06-08T02:13:57.568Z,72.25
2019-06-08T02:14:57.519Z,71.23
2019-06-08T02:15:57.534Z,71.12
2019-06-08T02:16:57.498Z,71.64
2019-06-08T02:17:57.500Z,71.43
2019-06-08T02:18:57.499Z,71.94
2019-06-08T02:19:57.499Z,71.73
2019-06-08T02:20:57.639Z,71.33
2019-06-08T02:21:57.469Z,71.33
2019-06-08T02:22:57.450Z,71.53
2019-06-08T02:23:57.437Z,71.84
2019-06-08T02:24:57.430Z,71.73
2019-06-08T02:25:57.430Z,71.64
2019-06-08T02:26:57.547Z,71.53
2019-06-08T02:27:57.399Z,72.45
2019-06-08T02:28:57.389Z,71.73
2019-06-08T02:29:57.381Z,72.04
2019-06-08T02:30:57.341Z,71.73
2019-06-08T02:31:57.520Z,71.64
2019-06-08T02:32:57.531Z,71.73
2019-06-08T02:33:57.382Z,71.53
2019-06-08T02:34:57.330Z,71.64
2019-06-08T02:35:57.441Z,71.94
2019-06-08T02:36:57.462Z,71.73
2019-06-08T02:37:57.282Z,71.84
2019-06-08T02:38:57.282Z,71.97
2019-06-08T02:39:57.283Z,71.77
2019-06-08T02:40:57.253Z,71.97
2019-06-08T02:41:57.410Z,71.67
2019-06-08T02:42:57.412Z,71.67
2019-06-08T02:43:57.231Z,71.73
2019-06-08T02:44:57.199Z,71.67
2019-06-08T02:45:57.203Z,72.08
2019-06-08T02:46:57.372Z,71.67
2019-06-08T02:47:57.361Z,71.97
2019-06-08T02:49:04.025Z,71.36
2019-06-08T02:49:58.153Z,71.77
2019-06-08T02:50:57.136Z,72.08
2019-06-08T02:51:57.151Z,71.67
2019-06-08T02:52:57.282Z,71.57
2019-06-08T02:53:57.114Z,71.97
2019-06-08T02:54:57.083Z,71.77
2019-06-08T02:55:57.209Z,71.47
2019-06-08T02:56:57.219Z,71.57
2019-06-08T02:58:04.099Z,71.67
2019-06-08T02:58:57.039Z,71.87
2019-06-08T02:59:57.052Z,71.87
2019-06-08T03:00:57.172Z,72.17
2019-06-08T03:01:57.021Z,71.87
2019-06-08T03:02:57.013Z,71.87
2019-06-08T03:03:57.161Z,72.08
2019-06-08T03:04:56.997Z,72.28
2019-06-08T03:05:57.021Z,71.97
2019-06-08T03:06:56.978Z,72.78
2019-06-08T03:07:56.940Z,72.41
2019-06-08T03:08:56.962Z,72.58
2019-06-08T03:09:57.102Z,72.48
2019-06-08T03:10:56.939Z,72.69
2019-06-08T03:11:56.900Z,72.89
2019-06-08T03:12:56.882Z,72.58
2019-06-08T03:13:56.902Z,72.17
2019-06-08T03:14:57.059Z,72.78
2019-06-08T03:15:56.883Z,72.28
2019-06-08T03:16:56.875Z,72.99
2019-06-08T03:17:56.831Z,72.28
2019-06-08T03:18:56.821Z,71.67
2019-06-08T03:19:57.004Z,71.57
2019-06-08T03:20:56.824Z,71.36
2019-06-08T03:21:56.815Z,71.16
2019-06-08T03:22:56.792Z,70.25
2019-06-08T03:23:56.763Z,70.04
2019-06-08T03:24:56.754Z,70.01
2019-06-08T03:25:56.796Z,69.40
2019-06-08T03:26:56.732Z,69.81
2019-06-08T03:27:56.722Z,70.11
2019-06-08T03:28:56.732Z,69.81
2019-06-08T03:29:56.883Z,68.49
2019-06-08T03:30:56.704Z,68.28
2019-06-08T03:31:57.732Z,67.97
2019-06-08T03:32:57.332Z,69.09
2019-06-08T03:33:56.955Z,68.89
2019-06-08T03:34:57.325Z,68.38
2019-06-08T03:35:58.435Z,68.79
2019-06-08T03:36:57.655Z,68.38
2019-06-08T03:37:56.613Z,68.89
2019-06-08T03:38:56.666Z,68.89
2019-06-08T03:39:56.613Z,69.91
2019-06-08T03:40:56.658Z,67.97
2019-06-08T03:42:17.725Z,68.28
2019-06-08T03:42:58.013Z,68.08
2019-06-08T03:43:56.606Z,67.77
2019-06-08T03:44:56.565Z,68.79
2019-06-08T03:45:56.677Z,68.18
2019-06-08T03:46:56.534Z,68.38
2019-06-08T03:47:56.513Z,67.88
2019-06-08T03:48:56.515Z,68.28
2019-06-08T03:49:57.777Z,69.40
2019-06-08T03:50:56.598Z,67.16
2019-06-08T03:51:56.484Z,66.96
2019-06-08T03:52:56.504Z,66.15
2019-06-08T03:53:56.464Z,67.06
2019-06-08T03:54:56.425Z,66.22
2019-06-08T03:55:56.587Z,65.91
2019-06-08T03:56:56.585Z,66.42
2019-06-08T03:57:56.394Z,66.22
2019-06-08T03:58:56.435Z,65.91
2019-06-08T03:59:56.402Z,66.63
2019-06-08T04:00:56.365Z,66.63
2019-06-08T04:01:56.547Z,66.32
2019-06-08T04:02:56.365Z,66.22
2019-06-08T04:03:59.953Z,66.42
2019-06-08T04:04:56.351Z,66.42
2019-06-08T04:05:56.317Z,66.63
2019-06-08T04:06:56.475Z,66.42
2019-06-08T04:07:56.285Z,67.13
2019-06-08T04:08:56.307Z,66.83
2019-06-08T04:09:56.286Z,66.83
2019-06-08T04:10:56.455Z,66.52
2019-06-08T04:11:56.268Z,66.52
2019-06-08T04:12:56.378Z,65.91
2019-06-08T04:13:56.216Z,66.02
2019-06-08T04:14:56.238Z,66.32
2019-06-08T04:15:56.196Z,66.52
2019-06-08T04:16:56.317Z,66.93
2019-06-08T04:17:56.192Z,66.83
2019-06-08T04:18:56.374Z,66.22
2019-06-08T04:20:10.631Z,66.42
2019-06-08T04:20:57.149Z,67.24
2019-06-08T04:21:56.170Z,67.84
2019-06-08T04:22:56.188Z,67.64
2019-06-08T04:23:56.128Z,66.72
2019-06-08T04:24:56.127Z,67.13
2019-06-08T04:25:56.097Z,67.03
2019-06-08T04:26:56.112Z,66.86
2019-06-08T04:27:56.069Z,66.86
2019-06-08T04:28:56.259Z,67.84
2019-06-08T04:29:56.179Z,67.33
2019-06-08T04:30:56.071Z,67.74
2019-06-08T04:31:56.056Z,68.35
2019-06-08T04:32:56.139Z,68.35
2019-06-08T04:33:56.023Z,68.25
2019-06-08T04:34:56.018Z,68.15
2019-06-08T04:35:56.020Z,67.84
2019-06-08T04:36:55.974Z,67.44
2019-06-08T04:37:55.983Z,67.74
2019-06-08T04:38:55.950Z,67.71
2019-06-08T04:39:55.959Z,67.00
2019-06-08T04:40:55.949Z,67.20
2019-06-08T04:41:55.952Z,67.00
2019-06-08T04:42:56.060Z,67.41
2019-06-08T04:43:55.919Z,66.80
2019-06-08T04:44:55.888Z,66.80
2019-06-08T04:45:55.882Z,67.61
2019-06-08T04:46:55.902Z,66.90
2019-06-08T04:47:55.866Z,67.00
2019-06-08T04:48:55.971Z,66.80
2019-06-08T04:49:55.839Z,66.90
2019-06-08T04:50:55.834Z,66.49
2019-06-08T04:51:55.838Z,67.41
2019-06-08T04:52:55.801Z,65.78
2019-06-08T04:53:55.946Z,65.88
2019-06-08T04:54:55.816Z,66.19
2019-06-08T04:55:55.772Z,64.97
2019-06-08T04:56:55.780Z,64.97
2019-06-08T04:57:55.743Z,64.67
2019-06-08T04:58:55.895Z,65.48
2019-06-08T04:59:55.751Z,64.87
2019-06-08T05:00:55.755Z,65.07
2019-06-08T05:01:55.713Z,65.55
2019-06-08T05:02:55.713Z,65.45
2019-06-08T05:03:55.833Z,65.14
2019-06-08T05:04:55.683Z,64.84
2019-06-08T05:05:55.832Z,65.34
2019-06-08T05:06:55.672Z,65.85
2019-06-08T05:07:55.663Z,65.95
2019-06-08T05:08:55.649Z,64.33
2019-06-08T05:09:55.634Z,65.45
2019-06-08T05:10:55.636Z,64.94
2019-06-08T05:11:55.751Z,64.81
2019-06-08T05:12:55.593Z,64.91
2019-06-08T05:13:55.574Z,64.91
2019-06-08T05:14:55.583Z,65.11
2019-06-08T05:15:55.573Z,64.91
2019-06-08T05:16:55.563Z,64.91
2019-06-08T05:17:55.523Z,64.91
2019-06-08T05:18:55.523Z,64.40
2019-06-08T05:19:55.694Z,63.35
2019-06-08T05:20:55.514Z,64.30
2019-06-08T05:21:55.517Z,64.58
2019-06-08T05:22:55.494Z,63.35
2019-06-08T05:23:58.845Z,63.66
2019-06-08T05:24:55.464Z,63.66
2019-06-08T05:25:55.480Z,63.66
2019-06-08T05:26:55.454Z,63.39
2019-06-08T05:27:55.416Z,62.68
2019-06-08T05:28:55.433Z,62.37
2019-06-08T05:29:55.395Z,62.98
2019-06-08T05:30:55.515Z,62.37
2019-06-08T05:31:55.385Z,61.76
2019-06-08T05:32:55.398Z,61.66
2019-06-08T05:33:55.365Z,61.56
2019-06-08T05:34:55.479Z,61.56
2019-06-08T05:35:55.466Z,60.55
2019-06-08T05:36:55.356Z,60.95
2019-06-08T05:37:55.315Z,61.05
2019-06-08T05:38:55.340Z,61.16
2019-06-08T05:39:55.316Z,61.56
2019-06-08T05:40:55.306Z,61.08
2019-06-08T05:41:55.399Z,62.07
2019-06-08T05:42:55.289Z,60.88
2019-06-08T05:43:55.256Z,60.17
2019-06-08T05:44:55.278Z,60.37
2019-06-08T05:45:55.247Z,60.78
2019-06-08T05:46:55.227Z,60.17
2019-06-08T05:47:55.236Z,60.98
2019-06-08T05:48:55.228Z,59.46
2019-06-08T05:49:55.207Z,60.17
2019-06-08T05:51:03.626Z,59.77
2019-06-08T05:51:56.186Z,60.17
2019-06-08T05:52:55.192Z,59.77
2019-06-08T05:53:55.288Z,59.46
2019-06-08T05:54:55.158Z,59.77
2019-06-08T05:55:55.117Z,59.46
2019-06-08T05:56:55.135Z,59.36
2019-06-08T05:57:55.097Z,59.26
2019-06-08T05:58:55.098Z,59.77
2019-06-08T05:59:55.099Z,60.17
2019-06-08T06:00:55.135Z,60.07
2019-06-08T06:01:55.082Z,60.98
2019-06-08T06:02:55.040Z,59.77
2019-06-08T06:03:55.053Z,60.78
2019-06-08T06:04:55.264Z,59.77
2019-06-08T06:05:55.019Z,59.26
2019-06-08T06:06:55.060Z,58.85
2019-06-08T06:07:54.996Z,59.56
2019-06-08T06:08:55.009Z,58.85
2019-06-08T06:09:54.991Z,59.26
2019-06-08T06:10:54.989Z,59.26
2019-06-08T06:11:55.157Z,59.36
2019-06-08T06:12:54.958Z,58.75
2019-06-08T06:13:54.960Z,59.26
2019-06-08T06:14:54.921Z,59.56
2019-06-08T06:15:54.929Z,60.88
2019-06-08T06:16:55.022Z,60.68
2019-06-08T06:17:54.880Z,59.97
2019-06-08T06:18:54.903Z,59.26
2019-06-08T06:19:54.881Z,59.46
2019-06-08T06:21:09.752Z,58.95
2019-06-08T06:21:55.970Z,59.86
2019-06-08T06:22:58.422Z,59.59
2019-06-08T06:23:54.812Z,59.79
2019-06-08T06:24:54.831Z,59.99
2019-06-08T06:25:54.801Z,60.10
2019-06-08T06:26:54.931Z,60.27
2019-06-08T06:27:54.792Z,60.98
2019-06-08T06:28:54.802Z,59.97
2019-06-08T06:29:54.815Z,60.27
2019-06-08T06:30:54.792Z,59.48
2019-06-08T06:31:54.752Z,59.39
2019-06-08T06:32:54.864Z,58.78
2019-06-08T06:33:54.730Z,59.08
2019-06-08T06:34:54.721Z,58.88
2019-06-08T06:35:54.682Z,59.79
2019-06-08T06:36:57.321Z,60.07
2019-06-08T06:37:54.711Z,59.18
2019-06-08T06:38:54.653Z,59.39
2019-06-08T06:39:54.643Z,59.28
2019-06-08T06:40:54.666Z,58.67
2019-06-08T06:41:54.743Z,59.28
2019-06-08T06:42:54.673Z,59.77
2019-06-08T06:43:54.652Z,59.66
2019-06-08T06:44:54.773Z,59.56
2019-06-08T06:45:54.603Z,59.77
2019-06-08T06:46:54.594Z,59.56
2019-06-08T06:47:54.719Z,59.66
2019-06-08T06:48:54.684Z,59.86
2019-06-08T06:49:54.559Z,59.66
2019-06-08T06:50:54.537Z,59.16
2019-06-08T06:51:54.533Z,58.75
2019-06-08T06:52:54.634Z,58.14
2019-06-08T06:53:54.507Z,57.81
2019-06-08T06:54:54.505Z,57.40
2019-06-08T06:55:54.494Z,57.81
2019-06-08T06:56:54.468Z,57.60
2019-06-08T06:57:54.477Z,58.31
2019-06-08T06:58:54.595Z,58.01
2019-06-08T06:59:54.496Z,58.22
2019-06-08T07:00:54.436Z,58.42
2019-06-08T07:01:57.494Z,57.60
2019-06-08T07:02:54.416Z,58.01
2019-06-08T07:03:54.541Z,58.72
2019-06-08T07:04:54.457Z,57.91
2019-06-08T07:05:54.430Z,58.31
2019-06-08T07:06:54.482Z,58.52
2019-06-08T07:07:54.546Z,56.99
2019-06-08T07:08:54.710Z,57.30
2019-06-08T07:09:54.942Z,57.81
2019-06-08T07:10:55.223Z,57.71
2019-06-08T07:11:56.205Z,58.09
2019-06-08T07:12:54.873Z,56.97
2019-06-08T07:13:55.190Z,57.98
2019-06-08T07:14:55.488Z,57.45
2019-06-08T07:15:57.813Z,55.90
2019-06-08T07:16:54.270Z,56.10
2019-06-08T07:17:54.991Z,56.31
2019-06-08T07:18:54.529Z,57.02
2019-06-08T07:19:54.723Z,56.79
2019-06-08T07:20:54.396Z,56.28
2019-06-08T07:21:54.783Z,55.40
2019-06-08T07:22:54.422Z,56.71
2019-06-08T07:23:56.043Z,56.82
2019-06-08T07:24:54.513Z,57.02
2019-06-08T07:25:54.568Z,56.61
2019-06-08T07:26:54.554Z,57.42
2019-06-08T07:27:55.146Z,56.13
2019-06-08T07:28:55.268Z,56.64
2019-06-08T07:29:54.822Z,57.24
2019-06-08T07:30:54.911Z,56.74
2019-06-08T07:31:55.260Z,56.34
2019-06-08T07:32:55.131Z,56.36
2019-06-08T07:33:55.525Z,56.77
2019-06-08T07:34:55.154Z,57.37
2019-06-08T07:35:55.228Z,56.36
2019-06-08T07:36:55.404Z,55.93
2019-06-08T07:37:55.437Z,56.31
2019-06-08T07:38:54.014Z,55.80
2019-06-08T07:39:54.012Z,55.70
2019-06-08T07:40:57.904Z,56.41
2019-06-08T07:41:55.983Z,56.18
2019-06-08T07:42:55.232Z,54.76
2019-06-08T07:43:54.442Z,54.99
2019-06-08T07:44:55.084Z,55.17
2019-06-08T07:45:54.206Z,55.37
2019-06-08T07:46:53.943Z,54.46
2019-06-08T07:47:54.038Z,55.44
2019-06-08T07:48:54.369Z,55.55
2019-06-08T07:49:55.443Z,55.75
2019-06-08T07:50:54.308Z,55.65
2019-06-08T07:52:02.421Z,56.36
2019-06-08T07:52:54.893Z,55.95
2019-06-08T07:53:53.873Z,56.36
2019-06-08T07:54:54.676Z,55.35
2019-06-08T07:55:53.884Z,55.77
2019-06-08T07:56:54.939Z,56.28
2019-06-08T07:57:54.029Z,56.99
2019-06-08T07:58:54.926Z,56.48
2019-06-08T07:59:54.545Z,56.92
2019-06-08T08:00:54.668Z,56.61
2019-06-08T08:01:54.001Z,56.10
2019-06-08T08:02:54.352Z,56.01
2019-06-08T08:03:54.183Z,56.82
2019-06-08T08:04:54.625Z,56.13
2019-06-08T08:05:55.077Z,57.35
2019-06-08T08:06:54.577Z,56.44
2019-06-08T08:07:54.731Z,55.93
2019-06-08T08:08:54.822Z,56.54
2019-06-08T08:09:54.911Z,56.54
2019-06-08T08:10:54.596Z,57.04
2019-06-08T08:11:55.096Z,57.04
2019-06-08T08:12:54.761Z,57.55
2019-06-08T08:13:54.771Z,57.55
2019-06-08T08:14:53.636Z,57.73
2019-06-08T08:15:55.091Z,57.32
2019-06-08T08:16:54.934Z,56.71
2019-06-08T08:17:53.924Z,56.82
2019-06-08T08:18:53.597Z,56.41
2019-06-08T08:19:53.567Z,57.02
2019-06-08T08:20:53.568Z,56.99
2019-06-08T08:21:54.962Z,56.48
2019-06-08T08:22:57.595Z,56.48
2019-06-08T08:23:55.906Z,56.76
2019-06-08T08:24:55.664Z,56.05
2019-06-08T08:25:55.201Z,55.44
2019-06-08T08:26:55.011Z,55.15
2019-06-08T08:27:53.541Z,55.65
2019-06-08T08:28:54.788Z,55.65
2019-06-08T08:29:53.479Z,55.44
2019-06-08T08:30:53.844Z,55.73
2019-06-08T08:31:53.460Z,55.02
2019-06-08T08:32:55.104Z,54.61
2019-06-08T08:33:54.618Z,54.31
2019-06-08T08:34:53.813Z,55.11
2019-06-08T08:35:53.730Z,54.71
2019-06-08T08:36:53.641Z,54.79
2019-06-08T08:37:56.679Z,54.86
2019-06-08T08:38:54.371Z,53.85
2019-06-08T08:39:53.585Z,55.62
2019-06-08T08:40:54.671Z,52.26
2019-06-08T08:41:56.867Z,52.87
2019-06-08T08:42:55.430Z,52.04
2019-06-08T08:43:54.338Z,51.93
2019-06-08T08:44:54.194Z,52.44
2019-06-08T08:45:54.012Z,51.76
2019-06-08T08:46:54.648Z,53.20
2019-06-08T08:48:08.241Z,52.67
2019-06-08T08:48:54.316Z,53.17
2019-06-08T08:49:54.036Z,52.74
2019-06-08T08:50:54.154Z,52.14
2019-06-08T08:51:54.053Z,51.40
2019-06-08T08:52:54.158Z,51.79
2019-06-08T08:53:55.851Z,50.85
2019-06-08T08:54:54.400Z,50.27
2019-06-08T08:55:54.251Z,51.91
2019-06-08T08:56:56.563Z,52.84
2019-06-08T08:57:53.661Z,53.25
2019-06-08T08:58:54.381Z,53.55
2019-06-08T08:59:55.184Z,52.87
2019-06-08T09:00:54.199Z,53.60
2019-06-08T09:01:53.179Z,54.13
2019-06-08T09:03:11.339Z,54.86
2019-06-08T09:03:55.990Z,54.96
2019-06-08T09:04:55.254Z,55.40
2019-06-08T09:05:53.807Z,55.19
2019-06-08T09:06:53.542Z,55.09
2019-06-08T09:07:53.747Z,55.09
2019-06-08T09:08:53.766Z,55.02
2019-06-08T09:09:53.556Z,55.82
2019-06-08T09:10:53.451Z,56.53
2019-06-08T09:11:54.043Z,56.13
2019-06-08T09:12:53.805Z,55.22
2019-06-08T09:13:53.560Z,55.42
2019-06-08T09:14:54.291Z,56.23
2019-06-08T09:15:53.836Z,55.93
2019-06-08T09:16:53.721Z,55.55
2019-06-08T09:17:53.864Z,55.35
2019-06-08T09:18:53.921Z,55.27
2019-06-08T09:19:54.007Z,55.57
2019-06-08T09:20:53.964Z,55.57
2019-06-08T09:21:54.023Z,55.68
2019-06-08T09:23:00.753Z,55.47
2019-06-08T09:23:54.061Z,55.27
2019-06-08T09:24:54.148Z,56.48
2019-06-08T09:25:55.719Z,56.48
2019-06-08T09:26:54.212Z,56.08
2019-06-08T09:27:54.186Z,56.79
2019-06-08T09:28:54.433Z,57.09
2019-06-08T09:29:53.774Z,56.89
2019-06-08T09:30:54.077Z,57.60
2019-06-08T09:31:53.914Z,57.29
2019-06-08T09:32:54.337Z,56.79
2019-06-08T09:33:57.001Z,56.69
2019-06-08T09:34:54.647Z,56.48
2019-06-08T09:35:53.551Z,56.18
2019-06-08T09:36:54.940Z,56.69
2019-06-08T09:37:53.738Z,56.59
2019-06-08T09:38:55.019Z,56.59
2019-06-08T09:39:53.932Z,56.38
2019-06-08T09:40:53.731Z,56.79
2019-06-08T09:41:54.171Z,56.48
2019-06-08T09:42:56.031Z,56.48
2019-06-08T09:43:55.269Z,55.47
2019-06-08T09:44:53.950Z,55.98
2019-06-08T09:45:53.706Z,55.17
2019-06-08T09:46:53.640Z,55.37
2019-06-08T09:47:53.689Z,55.77
2019-06-08T09:48:53.959Z,55.77
2019-06-08T09:49:53.828Z,56.28
2019-06-08T09:50:53.068Z,56.46
2019-06-08T09:51:53.783Z,56.05
2019-06-08T09:53:06.198Z,56.05
2019-06-08T09:53:54.714Z,56.56
2019-06-08T09:54:54.172Z,56.86
2019-06-08T09:55:53.284Z,55.98
2019-06-08T09:56:53.693Z,56.38
2019-06-08T09:57:54.507Z,56.99
2019-06-08T09:58:52.644Z,56.89
2019-06-08T09:59:54.720Z,56.86
2019-06-08T10:00:54.570Z,56.05
2019-06-08T10:01:53.978Z,56.86
2019-06-08T10:02:54.676Z,56.08
2019-06-08T10:03:54.171Z,56.38
2019-06-08T10:04:54.117Z,56.28
2019-06-08T10:05:52.448Z,56.08
2019-06-08T10:06:52.454Z,57.09
2019-06-08T10:07:52.401Z,57.60
2019-06-08T10:08:52.459Z,55.98
2019-06-08T10:09:52.457Z,56.79
2019-06-08T10:10:52.405Z,56.38
2019-06-08T10:11:52.392Z,57.50
2019-06-08T10:12:52.498Z,56.28
2019-06-08T10:13:52.375Z,56.69
2019-06-08T10:14:52.330Z,55.95
2019-06-08T10:15:52.501Z,55.35
2019-06-08T10:16:52.341Z,56.26
2019-06-08T10:17:52.300Z,56.15
2019-06-08T10:18:52.303Z,56.05
2019-06-08T10:19:52.406Z,55.55
2019-06-08T10:20:52.281Z,54.84
2019-06-08T10:21:52.264Z,54.44
2019-06-08T10:22:52.282Z,54.61
2019-06-08T10:23:52.320Z,54.21
2019-06-08T10:24:52.241Z,54.74
2019-06-08T10:25:52.361Z,54.51
2019-06-08T10:26:52.222Z,54.23
2019-06-08T10:27:52.198Z,54.33
2019-06-08T10:28:52.201Z,54.23
2019-06-08T10:29:52.193Z,54.64
2019-06-08T10:30:52.349Z,54.64
2019-06-08T10:31:52.339Z,54.74
2019-06-08T10:32:52.153Z,54.13
2019-06-08T10:33:52.142Z,54.44
2019-06-08T10:34:52.146Z,55.35
2019-06-08T10:35:52.122Z,55.35
2019-06-08T10:36:52.323Z,55.35
2019-06-08T10:37:55.171Z,54.74
2019-06-08T10:38:52.073Z,55.55
2019-06-08T10:39:52.087Z,54.94
2019-06-08T10:40:52.064Z,54.94
2019-06-08T10:41:52.141Z,55.32
2019-06-08T10:42:52.053Z,55.22
2019-06-08T10:43:52.061Z,54.91
2019-06-08T10:44:52.037Z,54.18
2019-06-08T10:45:52.018Z,53.67
2019-06-08T10:46:52.032Z,53.25
2019-06-08T10:47:52.118Z,54.05
2019-06-08T10:48:51.971Z,53.05
2019-06-08T10:49:51.986Z,53.65
2019-06-08T10:50:51.940Z,53.55
2019-06-08T10:51:51.946Z,53.96
2019-06-08T10:52:51.936Z,54.76
2019-06-08T10:53:53.653Z,54.46
2019-06-08T10:54:51.906Z,53.65
2019-06-08T10:55:51.917Z,52.94
2019-06-08T10:56:51.876Z,53.05
2019-06-08T10:57:51.886Z,53.17
2019-06-08T10:58:51.877Z,53.67
2019-06-08T10:59:51.848Z,53.67
2019-06-08T11:00:51.881Z,53.67
2019-06-08T11:01:51.830Z,54.18
2019-06-08T11:02:51.837Z,53.88
2019-06-08T11:03:51.887Z,53.38
2019-06-08T11:04:51.847Z,53.47
2019-06-08T11:05:51.806Z,53.67
2019-06-08T11:06:51.788Z,53.98
2019-06-08T11:07:51.766Z,52.76
2019-06-08T11:08:51.884Z,54.08
2019-06-08T11:09:51.739Z,53.58
2019-06-08T11:10:51.756Z,53.58
2019-06-08T11:11:51.739Z,54.38
2019-06-08T11:12:51.748Z,53.17
2019-06-08T11:13:51.734Z,53.78
2019-06-08T11:14:51.713Z,53.98
2019-06-08T11:15:51.700Z,54.18
2019-06-08T11:16:51.797Z,54.49
2019-06-08T11:17:51.697Z,53.38
2019-06-08T11:18:51.670Z,54.69
2019-06-08T11:19:51.641Z,54.49
2019-06-08T11:20:51.651Z,55.47
2019-06-08T11:21:51.635Z,53.78
2019-06-08T11:22:51.611Z,54.38
2019-06-08T11:24:05.550Z,53.98
2019-06-08T11:24:52.613Z,54.58
2019-06-08T11:25:51.571Z,54.66
2019-06-08T11:26:51.582Z,54.25
2019-06-08T11:27:51.552Z,54.16
2019-06-08T11:28:51.678Z,54.05
2019-06-08T11:29:51.541Z,53.55
2019-06-08T11:30:51.545Z,53.63
2019-06-08T11:31:51.523Z,53.32
2019-06-08T11:32:51.522Z,53.12
2019-06-08T11:33:51.502Z,53.32
2019-06-08T11:34:51.648Z,53.42
2019-06-08T11:35:51.540Z,53.70
2019-06-08T11:36:51.769Z,54.10
2019-06-08T11:37:51.484Z,53.70
2019-06-08T11:38:51.594Z,52.97
2019-06-08T11:39:51.420Z,53.17
2019-06-08T11:40:51.419Z,53.47
2019-06-08T11:41:51.414Z,53.17
2019-06-08T11:42:51.404Z,52.89
2019-06-08T11:43:51.377Z,53.60
2019-06-08T11:44:51.590Z,52.29
2019-06-08T11:45:51.360Z,52.29
2019-06-08T11:46:51.378Z,53.20
2019-06-08T11:47:51.345Z,52.79
2019-06-08T11:48:51.360Z,53.17
2019-06-08T11:49:51.457Z,53.38
2019-06-08T11:50:51.335Z,53.27
2019-06-08T11:51:51.315Z,53.17
2019-06-08T11:52:51.308Z,53.88
2019-06-08T11:53:52.401Z,53.07
2019-06-08T11:54:51.386Z,52.09
2019-06-08T11:55:51.288Z,52.69
2019-06-08T11:56:51.257Z,53.20
2019-06-08T11:57:51.218Z,53.00
2019-06-08T11:58:51.216Z,53.60
2019-06-08T11:59:51.348Z,53.52
2019-06-08T12:00:51.215Z,53.83
2019-06-08T12:01:51.199Z,54.43
2019-06-08T12:02:51.197Z,53.42
2019-06-08T12:03:51.158Z,53.63
2019-06-08T12:04:51.348Z,53.83
2019-06-08T12:05:51.229Z,53.93
2019-06-08T12:06:51.119Z,54.74
2019-06-08T12:07:51.113Z,53.50
2019-06-08T12:08:51.132Z,53.83
2019-06-08T12:09:51.219Z,54.63
2019-06-08T12:10:51.280Z,52.92
2019-06-08T12:11:51.099Z,53.32
2019-06-08T12:12:51.092Z,53.22
2019-06-08T12:13:51.070Z,53.93
2019-06-08T12:14:51.049Z,54.46
2019-06-08T12:15:51.231Z,53.45
2019-06-08T12:16:51.044Z,54.56
2019-06-08T12:17:51.071Z,54.03
2019-06-08T12:18:51.048Z,53.63
2019-06-08T12:19:50.981Z,53.52
2019-06-08T12:20:51.183Z,53.52
2019-06-08T12:21:51.036Z,53.80
2019-06-08T12:22:50.981Z,54.51
2019-06-08T12:23:50.974Z,53.47
2019-06-08T12:24:50.932Z,53.17
2019-06-08T12:25:51.103Z,52.04
2019-06-08T12:26:58.226Z,51.93
2019-06-08T12:27:52.790Z,52.64
2019-06-08T12:28:50.912Z,51.53
2019-06-08T12:29:50.907Z,51.73
2019-06-08T12:30:50.874Z,51.64
2019-06-08T12:31:50.983Z,52.34
2019-06-08T12:32:50.863Z,53.05
2019-06-08T12:33:50.836Z,53.14
2019-06-08T12:34:50.844Z,52.74
2019-06-08T12:35:50.838Z,53.05
2019-06-08T12:36:50.824Z,53.05
2019-06-08T12:37:51.578Z,53.32
2019-06-08T12:38:50.775Z,51.43
2019-06-08T12:39:50.799Z,51.73
2019-06-08T12:40:50.776Z,52.24
2019-06-08T12:41:50.775Z,52.14
2019-06-08T12:42:50.785Z,52.84
2019-06-08T12:43:50.745Z,52.74
2019-06-08T12:44:50.736Z,52.54
2019-06-08T12:45:50.726Z,51.93
2019-06-08T12:46:50.706Z,51.53
2019-06-08T12:47:50.885Z,52.14
2019-06-08T12:48:50.696Z,52.34
2019-06-08T12:49:50.720Z,52.36
2019-06-08T12:50:50.677Z,52.67
2019-06-08T12:51:51.829Z,52.56
2019-06-08T12:52:50.648Z,53.27
2019-06-08T12:53:50.746Z,53.85